Agana Heights, Guam
Current Conditions -  °F | °C
As of 12:54 AM on Saturday 29 Nov 2014 (Local Time) from PGUM Reporting Station
Broken Clouds Broken Clouds  
Wind Chill: 82°   Ceiling: 9500
Heat Index: 87°   Visibility: 10mi
Dew Point: 73°   Wind: 16mph
Humidity: 74%   Direction: 60°ENE
Pressure: 29.87"   Gusts: 23mph
Location:  13.47°N, 144.74°E
Report Text: PGUM 281454Z 06014G20KT 10SM BKN095 28/23 A2987 RMK AO2 SLP105 60000 T02780228 58006
Loading
Personal Weather Stations






























Interactive Weather Map New forecast layout! Learn more

10-Day Weather Forecast

Advertisements
Track Severe Weather on mobile